Time;durP1;ratioP1;P1;durP2;ratioP2;P2;SDS_P1;SDS_P2;PMS_P1;PMS_P2;Temp;Humidity;BMP_temperature;BMP_pressure;BME280_temperature;BME280_humidity;BME280_pressure;Samples;Min_cycle;Max_cycle;Signal;HPM_P1;HPM_P2
2021/01/26 00:01:05;;;;;;;59.72;29.42;;;0.40;99.90;;;;;;5045016;28;20053;-70
2021/01/26 00:03:31;;;;;;;60.30;28.02;;;0.40;99.90;;;;;;5039824;28;20049;-70
2021/01/26 00:05:58;;;;;;;56.85;25.95;;;0.40;99.90;;;;;;5043501;28;20094;-70
2021/01/26 00:08:24;;;;;;;52.97;25.60;;;0.50;99.90;;;;;;5028305;28;20068;-70
2021/01/26 00:10:52;;;;;;;51.95;24.33;;;0.50;99.90;;;;;;5028520;28;20110;-70
2021/01/26 00:13:19;;;;;;;53.47;25.17;;;0.50;99.90;;;;;;5028080;28;20102;-70
2021/01/26 00:15:47;;;;;;;48.88;23.02;;;0.50;99.90;;;;;;5028023;28;20075;-69
2021/01/26 00:18:13;;;;;;;51.65;24.42;;;0.50;99.90;;;;;;5045088;28;20055;-70
2021/01/26 00:20:40;;;;;;;55.88;26.08;;;0.60;99.90;;;;;;5044377;28;20163;-70
2021/01/26 00:23:07;;;;;;;50.80;24.50;;;0.60;99.90;;;;;;5027933;28;20088;-70
2021/01/26 00:25:37;;;;;;;58.13;28.08;;;0.60;99.90;;;;;;5008502;28;20055;-70
2021/01/26 00:28:05;;;;;;;52.03;23.42;;;0.60;99.90;;;;;;5032739;28;20064;-70
2021/01/26 00:30:35;;;;;;;58.80;27.67;;;0.60;99.90;;;;;;5036045;28;20080;-70
2021/01/26 00:33:07;;;;;;;51.17;24.10;;;0.60;99.90;;;;;;5038363;28;20170;-70
2021/01/26 00:35:34;;;;;;;56.88;27.25;;;0.60;99.90;;;;;;5027079;28;20079;-70
2021/01/26 00:38:02;;;;;;;56.53;27.17;;;0.60;99.90;;;;;;5043148;28;20155;-70
2021/01/26 00:40:29;;;;;;;47.55;22.40;;;0.70;99.90;;;;;;4991906;28;20099;-70
2021/01/26 00:42:56;;;;;;;49.50;23.75;;;0.70;99.90;;;;;;5025479;28;20073;-69
2021/01/26 00:45:24;;;;;;;55.28;26.20;;;0.70;99.90;;;;;;4990576;28;20040;-70
2021/01/26 00:47:51;;;;;;;64.55;28.08;;;0.70;99.90;;;;;;5044833;28;20063;-70
2021/01/26 00:50:19;;;;;;;62.30;27.13;;;0.70;99.90;;;;;;5045683;28;20052;-70
2021/01/26 00:52:46;;;;;;;65.25;29.83;;;0.70;99.90;;;;;;5044274;28;20053;-70
2021/01/26 00:55:20;;;;;;;63.50;28.55;;;0.70;99.90;;;;;;5017850;28;20088;-70
2021/01/26 00:57:47;;;;;;;60.30;28.75;;;0.70;99.90;;;;;;5007702;28;20045;-69
2021/01/26 01:00:25;;;;;;;60.85;27.52;;;0.70;99.90;;;;;;5007900;28;20535;-70
2021/01/26 01:02:53;;;;;;;67.20;30.08;;;0.70;99.90;;;;;;5036027;28;20041;-70
2021/01/26 01:05:20;;;;;;;51.80;25.27;;;0.70;99.90;;;;;;5023868;28;20053;-70
2021/01/26 01:07:47;;;;;;;60.60;27.98;;;0.70;99.90;;;;;;5025623;28;20071;-70
2021/01/26 01:10:20;;;;;;;58.65;27.27;;;0.70;99.90;;;;;;5007664;28;20057;-69
2021/01/26 01:12:47;;;;;;;61.72;28.38;;;0.80;99.90;;;;;;5040738;28;20061;-70
2021/01/26 01:15:15;;;;;;;63.53;30.42;;;0.80;99.90;;;;;;5023534;28;20045;-70
2021/01/26 01:17:41;;;;;;;71.35;32.85;;;0.80;99.90;;;;;;5025587;28;20123;-70
2021/01/26 01:20:09;;;;;;;62.60;31.23;;;0.90;99.90;;;;;;5023811;28;20136;-70
2021/01/26 01:22:36;;;;;;;64.03;28.25;;;0.80;99.90;;;;;;5023694;28;20143;-71
2021/01/26 01:25:04;;;;;;;62.58;28.52;;;0.90;99.90;;;;;;5024219;28;20049;-71
2021/01/26 01:27:30;;;;;;;60.50;29.02;;;0.90;99.90;;;;;;5027231;28;20366;-71
2021/01/26 01:29:57;;;;;;;61.85;29.13;;;0.90;99.90;;;;;;5027723;28;20053;-71
2021/01/26 01:32:23;;;;;;;58.47;28.23;;;0.90;99.90;;;;;;5037679;28;20065;-70
2021/01/26 01:34:50;;;;;;;56.17;26.98;;;0.90;99.90;;;;;;5025382;28;20102;-71
2021/01/26 01:37:16;;;;;;;54.03;25.45;;;0.90;99.90;;;;;;5024546;28;20053;-71
2021/01/26 01:39:44;;;;;;;64.55;27.38;;;1.00;99.90;;;;;;5032671;28;20033;-71
2021/01/26 01:42:12;;;;;;;49.58;26.90;;;1.00;99.90;;;;;;5039116;28;20140;-70
2021/01/26 01:44:40;;;;;;;51.38;25.92;;;1.00;99.90;;;;;;5042732;28;20069;-70
2021/01/26 01:47:14;;;;;;;43.38;23.05;;;1.00;99.90;;;;;;5042110;28;20049;-71
2021/01/26 01:49:44;;;;;;;42.95;23.67;;;1.00;99.90;;;;;;5024002;28;20061;-70
2021/01/26 01:52:24;;;;;;;49.25;25.75;;;1.00;99.90;;;;;;5023612;28;20042;-70
2021/01/26 01:55:00;;;;;;;48.55;25.25;;;1.00;99.90;;;;;;5024738;28;20043;-70
2021/01/26 01:57:34;;;;;;;44.03;23.95;;;1.10;99.90;;;;;;5026159;28;20041;-70
2021/01/26 02:00:11;;;;;;;46.88;23.83;;;1.10;99.90;;;;;;5026949;28;20170;-69
2021/01/26 02:02:49;;;;;;;46.60;24.35;;;1.00;99.90;;;;;;5007670;28;20192;-70
2021/01/26 02:05:16;;;;;;;55.88;27.50;;;1.00;99.90;;;;;;5025395;28;20055;-70
2021/01/26 02:07:44;;;;;;;49.67;25.60;;;1.10;99.90;;;;;;5029438;28;20053;-70
2021/01/26 02:10:11;;;;;;;52.33;26.88;;;1.10;99.90;;;;;;5041955;28;20049;-70
2021/01/26 02:12:39;;;;;;;50.58;24.73;;;1.10;99.90;;;;;;5007498;28;20141;-70
2021/01/26 02:15:07;;;;;;;54.05;27.70;;;1.10;99.90;;;;;;5027688;28;20053;-70
2021/01/26 02:18:04;;;;;;;47.47;24.77;;;1.20;99.90;;;;;;5026329;28;20057;-70
2021/01/26 02:20:49;;;;;;;49.60;26.30;;;1.10;99.90;;;;;;5010887;28;20076;-71
2021/01/26 02:23:30;;;;;;;50.78;27.63;;;1.20;99.90;;;;;;5027867;28;20052;-70
2021/01/26 02:26:12;;;;;;;51.85;24.65;;;1.20;99.90;;;;;;5029126;28;20052;-71
2021/01/26 02:28:49;;;;;;;44.92;25.10;;;1.20;99.90;;;;;;5010565;28;20104;-70
2021/01/26 02:31:40;;;;;;;51.22;26.15;;;1.20;99.90;;;;;;4992739;28;20075;-70
2021/01/26 02:34:32;;;;;;;49.33;25.52;;;1.10;99.90;;;;;;5023278;28;20045;-70
2021/01/26 02:37:29;;;;;;;45.20;23.85;;;1.10;99.90;;;;;;4986555;28;20060;-71
2021/01/26 02:40:11;;;;;;;40.42;23.08;;;1.00;99.90;;;;;;5010305;28;20061;-71
2021/01/26 02:42:51;;;;;;;51.08;26.33;;;1.00;99.90;;;;;;5042394;28;20539;-71
2021/01/26 02:45:33;;;;;;;39.42;21.75;;;1.00;99.90;;;;;;5027547;28;20618;-71
2021/01/26 02:48:30;;;;;;;38.60;21.38;;;1.00;99.90;;;;;;5046428;28;20053;-70
2021/01/26 02:51:14;;;;;;;34.65;19.15;;;1.00;99.90;;;;;;5029896;28;20073;-71
2021/01/26 02:53:49;;;;;;;42.50;21.52;;;1.10;99.90;;;;;;5028239;28;20848;-70
2021/01/26 02:56:36;;;;;;;33.90;19.05;;;1.10;99.90;;;;;;5028866;28;20446;-70
2021/01/26 02:59:14;;;;;;;32.38;19.05;;;1.10;99.90;;;;;;5045247;28;20503;-71
2021/01/26 03:01:49;;;;;;;28.33;16.42;;;1.10;99.90;;;;;;5044243;28;20080;-70
2021/01/26 03:04:28;;;;;;;26.58;17.15;;;1.20;99.90;;;;;;5045773;28;20127;-70
2021/01/26 03:07:00;;;;;;;29.10;18.08;;;1.20;99.90;;;;;;5045843;28;20106;-71
2021/01/26 03:09:35;;;;;;;25.10;14.82;;;1.30;99.90;;;;;;5029585;28;20415;-70
2021/01/26 03:12:14;;;;;;;28.95;16.40;;;1.30;99.90;;;;;;5028899;28;20529;-71
2021/01/26 03:14:51;;;;;;;34.13;19.45;;;1.30;99.90;;;;;;5028687;28;20049;-71
2021/01/26 03:17:29;;;;;;;31.48;17.33;;;1.30;99.90;;;;;;5045325;28;20085;-71
2021/01/26 03:19:58;;;;;;;32.20;17.45;;;1.30;99.90;;;;;;5043174;28;20081;-70
2021/01/26 03:22:27;;;;;;;27.95;16.60;;;1.20;99.90;;;;;;5025179;28;20609;-71
2021/01/26 03:24:56;;;;;;;28.73;16.58;;;1.20;99.90;;;;;;5025285;28;20616;-70
2021/01/26 03:27:33;;;;;;;30.23;18.35;;;1.20;99.90;;;;;;5035317;28;20061;-70
2021/01/26 03:30:02;;;;;;;33.60;19.45;;;1.20;99.90;;;;;;5026419;28;20053;-70
2021/01/26 03:32:33;;;;;;;29.48;16.25;;;1.20;99.90;;;;;;5016877;28;20049;-70
2021/01/26 03:35:01;;;;;;;29.02;16.30;;;1.10;99.90;;;;;;5028892;28;20418;-71
2021/01/26 03:37:27;;;;;;;30.30;17.75;;;1.10;99.90;;;;;;5046858;28;20081;-70
2021/01/26 03:39:54;;;;;;;33.55;20.23;;;1.10;99.90;;;;;;5012577;28;20048;-70
2021/01/26 03:42:23;;;;;;;34.50;18.33;;;1.00;99.90;;;;;;5027672;28;20528;-70
2021/01/26 03:44:50;;;;;;;31.23;17.35;;;1.00;99.90;;;;;;5045911;28;20158;-70
2021/01/26 03:47:24;;;;;;;33.92;19.83;;;1.00;99.90;;;;;;5028803;28;20057;-70
2021/01/26 03:49:59;;;;;;;36.13;20.90;;;1.00;99.90;;;;;;5046097;28;20462;-70
2021/01/26 03:52:49;;;;;;;31.45;17.30;;;1.00;99.90;;;;;;5044515;28;20078;-71
2021/01/26 03:55:29;;;;;;;33.67;18.60;;;1.00;99.90;;;;;;5028351;28;20115;-71
2021/01/26 03:58:23;;;;;;;35.13;21.50;;;1.00;99.90;;;;;;5009080;28;20045;-71
2021/01/26 04:01:05;;;;;;;37.35;20.17;;;1.00;99.90;;;;;;5008799;28;20077;-72
2021/01/26 04:03:55;;;;;;;42.70;18.48;;;0.90;99.90;;;;;;5044382;28;20542;-72
2021/01/26 04:06:35;;;;;;;35.40;19.23;;;0.90;99.90;;;;;;5045170;28;20053;-71
2021/01/26 04:09:09;;;;;;;26.05;15.55;;;0.90;99.90;;;;;;5046493;28;20088;-71
2021/01/26 04:11:54;;;;;;;41.70;20.38;;;0.90;99.90;;;;;;5043653;28;20057;-72
2021/01/26 04:14:26;;;;;;;54.55;24.95;;;0.90;99.90;;;;;;5012616;28;20087;-72
2021/01/26 04:17:06;;;;;;;50.20;26.27;;;0.90;99.90;;;;;;5011662;28;20077;-72
2021/01/26 04:19:48;;;;;;;56.08;29.08;;;0.90;99.90;;;;;;5045289;28;20691;-73
2021/01/26 04:22:17;;;;;;;50.70;24.40;;;0.90;99.90;;;;;;5028156;28;20060;-72
2021/01/26 04:24:43;;;;;;;57.95;27.17;;;0.90;99.90;;;;;;5044946;28;20095;-72
2021/01/26 04:27:14;;;;;;;53.25;27.90;;;0.90;99.90;;;;;;5027873;28;20045;-72
2021/01/26 04:29:40;;;;;;;51.15;25.75;;;0.90;99.90;;;;;;5044892;28;20638;-71
2021/01/26 04:32:07;;;;;;;53.80;27.40;;;0.90;99.90;;;;;;5039598;28;20052;-71
2021/01/26 04:34:33;;;;;;;55.80;27.20;;;1.00;99.90;;;;;;5027462;28;20499;-71
2021/01/26 04:37:00;;;;;;;56.05;28.35;;;1.00;99.90;;;;;;5045569;28;20084;-71
2021/01/26 04:39:27;;;;;;;55.35;28.48;;;1.00;99.90;;;;;;5026864;28;20140;-70
2021/01/26 04:42:00;;;;;;;53.63;26.55;;;1.00;99.90;;;;;;5008439;28;20049;-71
2021/01/26 04:44:57;;;;;;;52.17;26.67;;;1.00;99.90;;;;;;5024621;28;20065;-71
2021/01/26 04:47:44;;;;;;;56.33;28.55;;;1.00;99.90;;;;;;5043183;28;20048;-70
2021/01/26 04:50:29;;;;;;;62.45;31.92;;;1.00;99.90;;;;;;5027790;28;20049;-71
2021/01/26 04:53:03;;;;;;;68.18;32.00;;;1.00;99.90;;;;;;5010824;28;20131;-71
2021/01/26 04:55:55;;;;;;;63.22;31.20;;;1.10;99.90;;;;;;5036817;28;20041;-73
2021/01/26 04:58:53;;;;;;;64.15;31.48;;;1.10;99.90;;;;;;4992084;28;20530;-71
2021/01/26 05:01:38;;;;;;;59.03;28.27;;;1.10;99.90;;;;;;5024733;28;20057;-71
2021/01/26 05:04:12;;;;;;;61.17;30.08;;;1.00;99.90;;;;;;5028735;28;20569;-71
2021/01/26 05:06:52;;;;;;;67.00;30.08;;;1.10;99.90;;;;;;5027611;28;20545;-72
2021/01/26 05:09:31;;;;;;;61.50;28.58;;;1.10;99.90;;;;;;5041444;28;20037;-72
2021/01/26 05:12:01;;;;;;;55.35;27.95;;;1.10;99.90;;;;;;5026140;28;20132;-71
2021/01/26 05:14:39;;;;;;;64.72;29.55;;;1.10;99.90;;;;;;5027349;28;20143;-71
2021/01/26 05:17:26;;;;;;;56.30;29.23;;;1.10;99.90;;;;;;5043431;28;20057;-71
2021/01/26 05:20:01;;;;;;;58.20;26.48;;;1.10;99.90;;;;;;5027192;28;20159;-72
2021/01/26 05:22:38;;;;;;;57.28;27.27;;;1.20;99.90;;;;;;5025922;28;20066;-70
2021/01/26 05:25:10;;;;;;;54.78;25.73;;;1.20;99.90;;;;;;5041025;28;20690;-72
2021/01/26 05:27:37;;;;;;;41.22;20.38;;;1.20;99.90;;;;;;5008743;28;20049;-72
2021/01/26 05:30:09;;;;;;;48.25;20.48;;;1.20;99.90;;;;;;5043414;28;20496;-72
2021/01/26 05:32:37;;;;;;;46.08;21.80;;;1.30;99.90;;;;;;5032121;28;20642;-72
2021/01/26 05:35:05;;;;;;;44.67;22.83;;;1.30;99.90;;;;;;5021879;28;20049;-72
2021/01/26 05:37:33;;;;;;;48.70;22.63;;;1.30;99.90;;;;;;5025363;28;20139;-72
2021/01/26 05:40:26;;;;;;;39.03;19.63;;;1.30;99.90;;;;;;5022228;28;20049;-72
2021/01/26 05:42:59;;;;;;;30.95;14.63;;;1.30;99.90;;;;;;5026016;28;20475;-72
2021/01/26 05:45:28;;;;;;;26.10;13.40;;;1.30;99.90;;;;;;5025869;28;20499;-71
2021/01/26 05:48:14;;;;;;;30.27;13.60;;;1.40;99.90;;;;;;5046321;28;20392;-73
2021/01/26 05:50:43;;;;;;;27.77;12.43;;;1.40;99.90;;;;;;5047256;28;20068;-72
2021/01/26 05:53:24;;;;;;;24.42;11.48;;;1.40;99.90;;;;;;5046075;28;20045;-72
2021/01/26 05:56:09;;;;;;;16.65;7.72;;;1.40;99.90;;;;;;5045973;28;20570;-72
2021/01/26 05:58:37;;;;;;;18.70;9.03;;;1.40;99.90;;;;;;5030553;28;20049;-73
2021/01/26 06:01:10;;;;;;;19.02;8.85;;;1.40;99.90;;;;;;5030296;28;20283;-73
2021/01/26 06:03:37;;;;;;;15.30;8.05;;;1.40;99.90;;;;;;5038270;28;20092;-72
2021/01/26 06:06:06;;;;;;;18.80;7.22;;;1.40;99.90;;;;;;5029115;28;20049;-72
2021/01/26 06:08:48;;;;;;;14.95;6.63;;;1.40;99.90;;;;;;5038936;28;20091;-72
2021/01/26 06:11:19;;;;;;;15.32;8.27;;;1.40;99.90;;;;;;5013048;28;20126;-72
2021/01/26 06:13:46;;;;;;;18.38;7.47;;;1.40;99.90;;;;;;5047101;28;20087;-73
2021/01/26 06:16:21;;;;;;;18.90;8.52;;;1.40;99.90;;;;;;5030033;28;20129;-73
2021/01/26 06:18:57;;;;;;;14.65;7.18;;;1.40;99.90;;;;;;5046737;28;20072;-72
2021/01/26 06:21:24;;;;;;;17.52;7.85;;;1.40;99.90;;;;;;5029023;28;20431;-72
2021/01/26 06:23:51;;;;;;;21.92;7.47;;;1.50;99.90;;;;;;5028973;28;20061;-72
2021/01/26 06:26:17;;;;;;;20.27;7.55;;;1.50;99.90;;;;;;5029702;28;20046;-73
2021/01/26 06:29:09;;;;;;;16.85;7.75;;;1.50;99.90;;;;;;5030093;28;20045;-72
2021/01/26 06:31:57;;;;;;;18.30;8.18;;;1.50;99.90;;;;;;5028050;28;20659;-74
2021/01/26 06:34:42;;;;;;;15.50;6.32;;;1.50;99.90;;;;;;5005003;28;20051;-72
2021/01/26 06:37:23;;;;;;;17.75;7.65;;;1.50;99.90;;;;;;5048117;28;20087;-73
2021/01/26 06:39:56;;;;;;;17.33;7.70;;;1.60;99.90;;;;;;5025085;28;20491;-74
2021/01/26 06:42:49;;;;;;;12.07;6.40;;;1.50;99.90;;;;;;5029160;28;20049;-73
2021/01/26 06:45:26;;;;;;;19.60;9.07;;;1.50;99.90;;;;;;5046162;28;20051;-74
2021/01/26 06:48:13;;;;;;;15.65;6.75;;;1.60;99.90;;;;;;5045229;28;20068;-73
2021/01/26 06:50:48;;;;;;;18.52;8.02;;;1.60;99.90;;;;;;5046272;28;20052;-73
2021/01/26 06:53:52;;;;;;;19.15;7.43;;;1.60;99.90;;;;;;5045981;28;20049;-73
2021/01/26 06:57:02;;;;;;;16.25;7.20;;;1.60;99.90;;;;;;5046667;28;20041;-73
2021/01/26 06:59:37;;;;;;;18.10;7.38;;;1.60;99.90;;;;;;5045359;28;20435;-73
2021/01/26 07:02:37;;;;;;;22.85;8.85;;;1.60;99.90;;;;;;5028930;28;20045;-74
2021/01/26 07:05:07;;;;;;;19.88;8.80;;;1.60;99.90;;;;;;5045537;28;20130;-74
2021/01/26 07:07:55;;;;;;;19.20;8.23;;;1.70;99.90;;;;;;5044838;28;20143;-74
2021/01/26 07:10:46;;;;;;;16.40;7.82;;;1.70;99.90;;;;;;5036971;28;20049;-73
2021/01/26 07:13:15;;;;;;;21.33;7.53;;;1.60;99.90;;;;;;5046846;28;20052;-73
2021/01/26 07:15:53;;;;;;;21.08;7.60;;;1.50;99.90;;;;;;5040204;28;20084;-73
2021/01/26 07:18:33;;;;;;;17.73;7.63;;;1.40;99.90;;;;;;5028716;28;20106;-73
2021/01/26 07:21:38;;;;;;;16.85;6.25;;;1.40;99.90;;;;;;5027646;28;20053;-73
2021/01/26 07:24:26;;;;;;;20.20;7.43;;;1.30;99.90;;;;;;5008351;28;20055;-74
2021/01/26 07:27:02;;;;;;;18.00;6.80;;;1.30;99.90;;;;;;5029122;28;20176;-74
2021/01/26 07:29:43;;;;;;;13.13;6.72;;;1.20;99.90;;;;;;5012011;28;20229;-74
2021/01/26 07:32:18;;;;;;;15.95;5.75;;;1.20;99.90;;;;;;5026946;28;20511;-73
2021/01/26 07:34:52;;;;;;;16.88;6.82;;;1.20;99.90;;;;;;5044006;28;20106;-73
2021/01/26 07:37:23;;;;;;;16.65;6.55;;;1.20;99.90;;;;;;5028691;28;20059;-75
2021/01/26 07:40:15;;;;;;;16.98;6.63;;;1.10;99.90;;;;;;5029328;28;20126;-73
2021/01/26 07:43:10;;;;;;;19.17;6.00;;;1.10;99.90;;;;;;4972642;28;20132;-74
2021/01/26 07:46:05;;;;;;;16.25;6.75;;;1.10;99.90;;;;;;5009534;28;20164;-74
2021/01/26 07:48:50;;;;;;;17.30;7.43;;;1.10;99.90;;;;;;5048051;28;20048;-76
2021/01/26 07:51:25;;;;;;;18.90;7.55;;;1.10;99.90;;;;;;5048265;28;20140;-75
2021/01/26 07:54:20;;;;;;;24.95;8.63;;;1.10;99.90;;;;;;5020910;28;20048;-76
2021/01/26 07:56:46;;;;;;;26.83;10.45;;;1.10;99.90;;;;;;5026675;28;20423;-76
2021/01/26 07:59:32;;;;;;;29.73;9.88;;;1.10;99.90;;;;;;5007528;28;20536;-76
2021/01/26 08:02:01;;;;;;;35.15;12.43;;;1.10;99.90;;;;;;5004192;28;20064;-76
2021/01/26 08:04:41;;;;;;;28.58;11.50;;;1.10;99.90;;;;;;4992689;28;20056;-77
2021/01/26 08:07:08;;;;;;;29.70;12.82;;;1.00;99.90;;;;;;4991905;28;20080;-76
2021/01/26 08:09:48;;;;;;;29.13;11.90;;;1.00;99.90;;;;;;5009014;28;20111;-76
2021/01/26 08:12:20;;;;;;;40.05;15.45;;;0.90;99.90;;;;;;5020414;28;20072;-75
2021/01/26 08:14:48;;;;;;;38.10;13.85;;;0.80;99.90;;;;;;4993203;28;20053;-76
2021/01/26 08:17:26;;;;;;;24.70;11.00;;;0.80;99.90;;;;;;5026360;28;20126;-74
2021/01/26 08:20:21;;;;;;;31.92;12.88;;;0.80;99.90;;;;;;5029214;28;20538;-75
2021/01/26 08:22:58;;;;;;;27.80;11.68;;;0.80;99.90;;;;;;5033780;28;20057;-75
2021/01/26 08:25:29;;;;;;;32.00;12.15;;;0.70;99.90;;;;;;4991742;28;20740;-75
2021/01/26 08:28:10;;;;;;;29.60;13.18;;;0.70;99.90;;;;;;5025545;28;20625;-76
2021/01/26 08:30:36;;;;;;;29.80;12.20;;;0.70;99.90;;;;;;5026449;28;20076;-76
2021/01/26 08:33:12;;;;;;;25.65;11.77;;;0.70;99.90;;;;;;5022304;28;20498;-76
2021/01/26 08:36:04;;;;;;;27.27;12.75;;;0.70;99.90;;;;;;5045710;28;20045;-76
2021/01/26 08:38:49;;;;;;;21.33;10.80;;;0.70;99.90;;;;;;5046852;28;20065;-76
2021/01/26 08:41:42;;;;;;;30.17;13.45;;;0.70;99.90;;;;;;5011071;28;20141;-76
2021/01/26 08:44:22;;;;;;;35.50;13.23;;;0.70;99.90;;;;;;5029255;28;20156;-76
2021/01/26 08:46:51;;;;;;;26.58;10.77;;;0.70;99.90;;;;;;5041815;28;20107;-76
2021/01/26 08:49:28;;;;;;;31.45;13.95;;;0.80;99.90;;;;;;5046781;28;20068;-77
2021/01/26 08:52:15;;;;;;;32.47;14.07;;;0.70;99.90;;;;;;5035327;28;20107;-77
2021/01/26 08:54:44;;;;;;;40.38;16.33;;;0.80;99.90;;;;;;5028622;28;20073;-76
2021/01/26 08:57:29;;;;;;;38.10;16.50;;;0.70;99.90;;;;;;5028562;28;20057;-77
2021/01/26 09:00:36;;;;;;;36.95;14.40;;;0.70;99.90;;;;;;5025726;28;20056;-77
2021/01/26 09:03:33;;;;;;;38.95;16.38;;;0.70;99.90;;;;;;5017847;28;20705;-77
2021/01/26 09:06:04;;;;;;;42.28;16.05;;;0.70;99.90;;;;;;5044645;28;20055;-76
2021/01/26 09:08:41;;;;;;;43.50;18.33;;;0.70;99.90;;;;;;5045920;28;20063;-77
2021/01/26 09:11:41;;;;;;;47.53;19.52;;;0.80;99.90;;;;;;5028231;28;20485;-76
2021/01/26 09:14:32;;;;;;;43.00;15.05;;;0.80;99.90;;;;;;5046321;28;20049;-77
2021/01/26 09:17:17;;;;;;;50.60;18.55;;;0.70;99.90;;;;;;5027718;28;20052;-77
2021/01/26 09:19:55;;;;;;;47.30;19.92;;;0.70;99.90;;;;;;5028597;28;20546;-77
2021/01/26 09:22:28;;;;;;;46.00;15.95;;;0.70;99.90;;;;;;5027061;28;20114;-77
2021/01/26 09:25:18;;;;;;;47.75;17.42;;;0.70;99.90;;;;;;5011223;28;20053;-76
2021/01/26 09:27:57;;;;;;;54.35;20.27;;;0.70;99.90;;;;;;5028626;28;20049;-77
2021/01/26 09:30:25;;;;;;;54.05;21.33;;;0.70;99.90;;;;;;5044035;28;20140;-77
2021/01/26 09:32:54;;;;;;;49.28;20.27;;;0.70;99.90;;;;;;5010729;28;20072;-77
2021/01/26 09:35:27;;;;;;;51.58;18.80;;;0.80;99.90;;;;;;5043567;28;20052;-76
2021/01/26 09:38:06;;;;;;;46.25;17.55;;;0.70;99.90;;;;;;5026707;28;20044;-77
2021/01/26 09:40:35;;;;;;;55.38;20.08;;;0.70;99.90;;;;;;5026772;28;20057;-76
2021/01/26 09:43:43;;;;;;;47.58;18.38;;;0.70;99.90;;;;;;5043677;28;20174;-77
2021/01/26 09:46:28;;;;;;;40.28;16.15;;;0.80;99.90;;;;;;4959224;28;20053;-77
2021/01/26 09:49:07;;;;;;;47.08;17.27;;;0.80;99.90;;;;;;4986079;28;20056;-77
2021/01/26 09:51:43;;;;;;;40.28;16.60;;;0.80;99.90;;;;;;4972251;28;20491;-78
2021/01/26 09:54:32;;;;;;;40.55;15.35;;;0.80;99.90;;;;;;4988060;28;20073;-77
2021/01/26 09:57:01;;;;;;;38.60;17.10;;;0.90;99.90;;;;;;4988311;28;20050;-77
2021/01/26 09:59:31;;;;;;;44.28;18.67;;;0.80;99.90;;;;;;5004148;28;20129;-77
2021/01/26 10:02:00;;;;;;;46.47;19.08;;;0.90;99.90;;;;;;4991617;28;20511;-76
2021/01/26 10:04:32;;;;;;;48.33;19.40;;;1.00;99.90;;;;;;5007224;28;20047;-76
2021/01/26 10:07:19;;;;;;;53.58;20.95;;;1.00;99.90;;;;;;4991525;28;20060;-77
2021/01/26 10:09:45;;;;;;;60.97;26.05;;;1.10;99.90;;;;;;4988280;28;20057;-77
2021/01/26 10:12:33;;;;;;;60.97;23.00;;;1.10;99.90;;;;;;5003631;28;20046;-76
2021/01/26 10:15:34;;;;;;;59.40;22.67;;;1.10;99.90;;;;;;4973319;28;20416;-77
2021/01/26 10:18:20;;;;;;;54.55;21.90;;;1.10;99.90;;;;;;4987978;28;20132;-76
2021/01/26 10:20:47;;;;;;;45.88;18.90;;;1.20;99.90;;;;;;4977628;28;20045;-77
2021/01/26 10:23:43;;;;;;;51.28;19.90;;;1.20;99.90;;;;;;5036708;28;20076;-77
2021/01/26 10:26:25;;;;;;;45.30;18.25;;;1.30;99.90;;;;;;5044388;28;20049;-77
2021/01/26 10:29:07;;;;;;;43.40;18.92;;;1.30;99.90;;;;;;5027564;28;20480;-77
2021/01/26 10:31:46;;;;;;;38.70;16.25;;;1.30;99.90;;;;;;5025721;28;20075;-77
2021/01/26 10:34:35;;;;;;;39.25;18.13;;;1.30;99.90;;;;;;5011557;28;20059;-77
2021/01/26 10:37:22;;;;;;;38.50;18.67;;;1.20;99.90;;;;;;5029515;28;20045;-77
2021/01/26 10:40:14;;;;;;;38.97;16.40;;;1.30;99.90;;;;;;5012158;28;20069;-77
2021/01/26 10:42:46;;;;;;;37.25;16.98;;;1.30;99.90;;;;;;5012093;28;20058;-80
2021/01/26 10:45:13;;;;;;;45.28;19.83;;;1.20;99.90;;;;;;5013086;28;20057;-80
2021/01/26 10:47:43;;;;;;;46.97;16.77;;;1.30;99.90;;;;;;5014139;28;20049;-79
2021/01/26 10:50:14;;;;;;;39.65;17.45;;;1.20;99.90;;;;;;5014713;28;20041;-80
2021/01/26 10:52:47;;;;;;;34.35;15.05;;;1.30;99.90;;;;;;5031566;28;20049;-81
2021/01/26 10:55:16;;;;;;;33.72;14.55;;;1.20;99.90;;;;;;4998084;28;20069;-82
2021/01/26 10:57:44;;;;;;;37.05;16.08;;;1.10;99.90;;;;;;4999670;28;20368;-82
2021/01/26 11:00:17;;;;;;;44.35;17.60;;;1.30;99.90;;;;;;5031331;28;20060;-83
2021/01/26 11:02:44;;;;;;;39.92;16.77;;;1.30;99.90;;;;;;5040947;28;20165;-80
2021/01/26 11:05:12;;;;;;;41.67;17.52;;;1.30;99.90;;;;;;5051121;28;20037;-82
2021/01/26 11:07:39;;;;;;;37.45;16.45;;;1.30;99.90;;;;;;5033868;28;20135;-82
2021/01/26 11:10:09;;;;;;;36.53;15.60;;;1.40;99.90;;;;;;5034911;28;20048;-81
2021/01/26 11:12:37;;;;;;;39.40;17.60;;;1.30;99.90;;;;;;5021710;28;20147;-81
2021/01/26 11:15:08;;;;;;;40.30;16.52;;;1.40;99.90;;;;;;5030107;28;20083;-81
2021/01/26 11:17:35;;;;;;;39.17;17.33;;;1.30;99.90;;;;;;5030742;28;20141;-80
2021/01/26 11:20:04;;;;;;;37.17;17.17;;;1.30;99.90;;;;;;5002767;28;20047;-82
2021/01/26 11:22:32;;;;;;;34.78;15.48;;;1.20;99.90;;;;;;5032747;28;20484;-80
2021/01/26 11:24:59;;;;;;;36.65;18.15;;;1.20;99.90;;;;;;5033354;28;20045;-80
2021/01/26 11:27:25;;;;;;;39.42;16.45;;;1.30;99.90;;;;;;5017267;28;20049;-82
2021/01/26 11:29:52;;;;;;;38.25;15.98;;;1.30;99.90;;;;;;5035604;28;20056;-81
2021/01/26 11:32:19;;;;;;;39.58;17.23;;;1.20;99.90;;;;;;5035049;28;20095;-81
2021/01/26 11:34:46;;;;;;;39.80;17.63;;;1.20;99.90;;;;;;5044971;28;20074;-80
2021/01/26 11:37:13;;;;;;;34.20;16.40;;;1.20;99.90;;;;;;5033573;28;20072;-79
2021/01/26 11:39:39;;;;;;;38.20;19.67;;;1.20;99.90;;;;;;5033693;28;20462;-79
2021/01/26 11:42:07;;;;;;;37.72;17.75;;;1.20;99.90;;;;;;5049824;28;20095;-79
2021/01/26 11:44:34;;;;;;;38.60;17.77;;;1.20;99.90;;;;;;5016328;28;20144;-80
2021/01/26 11:47:01;;;;;;;40.45;19.23;;;1.20;99.90;;;;;;5050305;28;20041;-81
2021/01/26 11:49:28;;;;;;;36.17;17.20;;;1.20;99.90;;;;;;5019148;28;20048;-78
2021/01/26 11:51:55;;;;;;;34.50;17.85;;;1.30;99.90;;;;;;5050734;28;20049;-79
2021/01/26 11:54:21;;;;;;;40.83;20.38;;;1.30;99.90;;;;;;5032621;28;20052;-80
2021/01/26 11:56:48;;;;;;;43.55;20.60;;;1.30;99.90;;;;;;5027402;28;20049;-83
2021/01/26 11:59:15;;;;;;;39.92;19.42;;;1.40;99.90;;;;;;5013506;28;20067;-80
2021/01/26 12:01:42;;;;;;;42.00;19.13;;;1.40;99.90;;;;;;5028026;28;20458;-80
2021/01/26 12:04:13;;;;;;;44.30;20.45;;;1.40;99.90;;;;;;5014838;28;20063;-81
2021/01/26 12:06:40;;;;;;;39.28;18.02;;;1.40;99.90;;;;;;5031809;28;20045;-81
2021/01/26 12:09:06;;;;;;;39.05;19.67;;;1.30;99.90;;;;;;5033290;28;20069;-79
2021/01/26 12:11:33;;;;;;;40.10;17.42;;;1.40;99.90;;;;;;5031348;28;20048;-80
2021/01/26 12:14:01;;;;;;;43.50;18.58;;;1.30;99.90;;;;;;5034451;28;20080;-80
2021/01/26 12:16:27;;;;;;;40.05;18.10;;;1.40;99.90;;;;;;5012023;28;20712;-81
2021/01/26 12:18:54;;;;;;;38.95;17.67;;;1.40;99.90;;;;;;5012590;28;20120;-81
2021/01/26 12:21:21;;;;;;;36.50;19.00;;;1.30;99.90;;;;;;5028338;28;20065;-80
2021/01/26 12:23:50;;;;;;;33.85;17.75;;;1.30;99.90;;;;;;5011052;28;20115;-81
2021/01/26 12:26:18;;;;;;;32.25;16.02;;;1.30;99.90;;;;;;5010872;28;20081;-80
2021/01/26 12:28:45;;;;;;;33.00;16.17;;;1.30;99.90;;;;;;5012645;28;20053;-80
2021/01/26 12:31:13;;;;;;;37.90;16.88;;;1.20;99.90;;;;;;5011410;28;20057;-79
2021/01/26 12:33:40;;;;;;;35.22;17.10;;;1.30;99.90;;;;;;5029971;28;20626;-80
2021/01/26 12:36:06;;;;;;;35.20;18.20;;;1.30;99.90;;;;;;5027358;28;20065;-76
2021/01/26 12:38:33;;;;;;;36.45;17.95;;;1.30;99.90;;;;;;5027057;28;20131;-76
2021/01/26 12:40:59;;;;;;;38.47;18.60;;;1.40;99.90;;;;;;5008337;28;20123;-76
2021/01/26 12:43:27;;;;;;;37.97;20.13;;;1.40;99.90;;;;;;4991816;28;20623;-76
2021/01/26 12:45:53;;;;;;;34.95;18.35;;;1.50;99.90;;;;;;5020201;28;20426;-76
2021/01/26 12:48:20;;;;;;;37.50;19.45;;;1.40;99.90;;;;;;5028090;28;20041;-75
2021/01/26 12:50:47;;;;;;;38.00;18.30;;;1.40;99.90;;;;;;5011539;28;20045;-74
2021/01/26 12:53:14;;;;;;;35.05;17.75;;;1.40;99.90;;;;;;5027744;28;20052;-75
2021/01/26 12:55:41;;;;;;;35.22;18.33;;;1.40;99.90;;;;;;5027611;28;20076;-74
2021/01/26 12:58:08;;;;;;;34.15;18.42;;;1.40;99.90;;;;;;5045920;28;20126;-77
2021/01/26 13:00:35;;;;;;;33.90;19.05;;;1.60;99.90;;;;;;5026082;28;20132;-77
2021/01/26 13:03:02;;;;;;;34.78;19.48;;;1.70;99.90;;;;;;5040154;28;20103;-76
2021/01/26 13:05:29;;;;;;;39.45;20.75;;;1.80;99.90;;;;;;5027199;28;20377;-77
2021/01/26 13:07:57;;;;;;;35.17;20.05;;;1.80;99.90;;;;;;5045035;28;20139;-77
2021/01/26 13:10:25;;;;;;;35.70;20.67;;;1.90;99.90;;;;;;5027510;28;20033;-77
2021/01/26 13:12:52;;;;;;;36.47;21.20;;;1.90;99.90;;;;;;5026860;28;20041;-76
2021/01/26 13:15:20;;;;;;;32.28;20.50;;;2.00;99.90;;;;;;5043568;28;20321;-76
2021/01/26 13:17:46;;;;;;;38.50;21.02;;;1.80;99.90;;;;;;5043674;28;20044;-75